sensor_id;sensor_type;location;lat;lon;timestamp;temperature;humidity
76893;DHT22;65854;51.466;7.260;2023-01-16T00:01:17;5.00;82.30
76893;DHT22;65854;51.466;7.260;2023-01-16T00:03:43;5.00;82.60
76893;DHT22;65854;51.466;7.260;2023-01-16T00:06:09;5.00;81.30
76893;DHT22;65854;51.466;7.260;2023-01-16T00:08:34;5.00;81.90
76893;DHT22;65854;51.466;7.260;2023-01-16T00:11:00;5.00;81.90
76893;DHT22;65854;51.466;7.260;2023-01-16T00:13:26;5.00;82.00
76893;DHT22;65854;51.466;7.260;2023-01-16T00:15:51;5.10;81.60
76893;DHT22;65854;51.466;7.260;2023-01-16T00:18:17;5.10;80.80
76893;DHT22;65854;51.466;7.260;2023-01-16T00:20:43;5.10;80.80
76893;DHT22;65854;51.466;7.260;2023-01-16T00:23:10;5.10;80.40
76893;DHT22;65854;51.466;7.260;2023-01-16T00:25:40;5.10;80.10
76893;DHT22;65854;51.466;7.260;2023-01-16T00:28:10;5.20;80.10
76893;DHT22;65854;51.466;7.260;2023-01-16T00:30:37;5.20;80.00
76893;DHT22;65854;51.466;7.260;2023-01-16T00:33:03;5.20;80.20
76893;DHT22;65854;51.466;7.260;2023-01-16T00:35:29;5.20;79.60
76893;DHT22;65854;51.466;7.260;2023-01-16T00:37:55;5.20;79.70
76893;DHT22;65854;51.466;7.260;2023-01-16T00:40:21;5.20;79.90
76893;DHT22;65854;51.466;7.260;2023-01-16T00:42:46;5.20;79.40
76893;DHT22;65854;51.466;7.260;2023-01-16T00:45:12;5.20;79.20
76893;DHT22;65854;51.466;7.260;2023-01-16T00:47:37;5.20;79.10
76893;DHT22;65854;51.466;7.260;2023-01-16T00:50:04;5.20;79.30
76893;DHT22;65854;51.466;7.260;2023-01-16T00:52:30;5.20;78.70
76893;DHT22;65854;51.466;7.260;2023-01-16T00:54:55;5.10;78.50
76893;DHT22;65854;51.466;7.260;2023-01-16T00:57:21;5.10;78.80
76893;DHT22;65854;51.466;7.260;2023-01-16T00:59:46;5.20;78.60
76893;DHT22;65854;51.466;7.260;2023-01-16T01:02:12;5.20;78.10
76893;DHT22;65854;51.466;7.260;2023-01-16T01:04:37;5.20;78.40
76893;DHT22;65854;51.466;7.260;2023-01-16T01:07:03;5.20;78.70
76893;DHT22;65854;51.466;7.260;2023-01-16T01:09:29;5.20;78.50
76893;DHT22;65854;51.466;7.260;2023-01-16T01:11:56;5.20;78.70
76893;DHT22;65854;51.466;7.260;2023-01-16T01:14:23;5.20;78.60
76893;DHT22;65854;51.466;7.260;2023-01-16T01:16:49;5.20;78.50
76893;DHT22;65854;51.466;7.260;2023-01-16T01:19:14;5.20;78.20
76893;DHT22;65854;51.466;7.260;2023-01-16T01:21:40;5.10;77.80
76893;DHT22;65854;51.466;7.260;2023-01-16T01:24:05;5.10;77.80
76893;DHT22;65854;51.466;7.260;2023-01-16T01:26:31;5.10;77.30
76893;DHT22;65854;51.466;7.260;2023-01-16T01:28:57;5.10;77.70
76893;DHT22;65854;51.466;7.260;2023-01-16T01:31:22;5.10;77.90
76893;DHT22;65854;51.466;7.260;2023-01-16T01:33:48;5.10;77.70
76893;DHT22;65854;51.466;7.260;2023-01-16T01:36:14;5.10;77.60
76893;DHT22;65854;51.466;7.260;2023-01-16T01:38:39;5.10;77.70
76893;DHT22;65854;51.466;7.260;2023-01-16T01:41:05;5.00;78.00
76893;DHT22;65854;51.466;7.260;2023-01-16T01:43:51;5.00;78.40
76893;DHT22;65854;51.466;7.260;2023-01-16T01:48:43;5.00;78.40
76893;DHT22;65854;51.466;7.260;2023-01-16T01:51:23;5.00;78.50
76893;DHT22;65854;51.466;7.260;2023-01-16T01:53:55;4.90;78.80
76893;DHT22;65854;51.466;7.260;2023-01-16T01:56:26;4.90;78.40
76893;DHT22;65854;51.466;7.260;2023-01-16T01:58:57;4.90;78.70
76893;DHT22;65854;51.466;7.260;2023-01-16T02:01:24;4.90;78.70
76893;DHT22;65854;51.466;7.260;2023-01-16T02:03:57;4.90;78.60
76893;DHT22;65854;51.466;7.260;2023-01-16T02:06:39;4.90;78.40
76893;DHT22;65854;51.466;7.260;2023-01-16T02:09:06;4.90;78.10
76893;DHT22;65854;51.466;7.260;2023-01-16T02:11:42;4.80;78.00
76893;DHT22;65854;51.466;7.260;2023-01-16T02:14:12;4.90;78.60
76893;DHT22;65854;51.466;7.260;2023-01-16T02:16:39;4.80;78.40
76893;DHT22;65854;51.466;7.260;2023-01-16T02:39:36;4.80;79.40
76893;DHT22;65854;51.466;7.260;2023-01-16T02:45:09;4.80;79.20
76893;DHT22;65854;51.466;7.260;2023-01-16T02:55:55;4.80;79.10
76893;DHT22;65854;51.466;7.260;2023-01-16T02:58:24;4.80;79.10
76893;DHT22;65854;51.466;7.260;2023-01-16T03:00:57;4.90;79.40
76893;DHT22;65854;51.466;7.260;2023-01-16T03:03:46;4.90;79.40
76893;DHT22;65854;51.466;7.260;2023-01-16T03:09:23;5.00;78.70
76893;DHT22;65854;51.466;7.260;2023-01-16T03:12:17;5.00;79.00
76893;DHT22;65854;51.466;7.260;2023-01-16T03:23:06;5.10;79.00
76893;DHT22;65854;51.466;7.260;2023-01-16T03:25:39;5.10;79.10
76893;DHT22;65854;51.466;7.260;2023-01-16T03:28:20;5.10;79.60
76893;DHT22;65854;51.466;7.260;2023-01-16T03:30:54;5.20;79.00
76893;DHT22;65854;51.466;7.260;2023-01-16T03:34:04;5.20;78.80
76893;DHT22;65854;51.466;7.260;2023-01-16T03:36:25;5.20;78.90
76893;DHT22;65854;51.466;7.260;2023-01-16T03:38:56;5.10;78.70
76893;DHT22;65854;51.466;7.260;2023-01-16T03:41:25;5.10;78.80
76893;DHT22;65854;51.466;7.260;2023-01-16T03:43:57;5.00;78.60
76893;DHT22;65854;51.466;7.260;2023-01-16T03:46:29;5.00;79.10
76893;DHT22;65854;51.466;7.260;2023-01-16T03:49:13;4.90;79.30
76893;DHT22;65854;51.466;7.260;2023-01-16T03:51:45;4.90;79.00
76893;DHT22;65854;51.466;7.260;2023-01-16T03:57:22;4.80;79.10
76893;DHT22;65854;51.466;7.260;2023-01-16T03:59:51;4.80;79.40
76893;DHT22;65854;51.466;7.260;2023-01-16T04:02:37;4.70;79.70
76893;DHT22;65854;51.466;7.260;2023-01-16T04:08:09;4.80;79.60
76893;DHT22;65854;51.466;7.260;2023-01-16T04:10:38;4.80;79.50
76893;DHT22;65854;51.466;7.260;2023-01-16T04:13:07;4.80;79.30
76893;DHT22;65854;51.466;7.260;2023-01-16T04:15:36;4.80;79.70
76893;DHT22;65854;51.466;7.260;2023-01-16T04:18:04;4.80;79.20
76893;DHT22;65854;51.466;7.260;2023-01-16T04:20:31;4.80;79.30
76893;DHT22;65854;51.466;7.260;2023-01-16T04:22:57;4.80;79.30
76893;DHT22;65854;51.466;7.260;2023-01-16T04:25:22;4.80;79.00
76893;DHT22;65854;51.466;7.260;2023-01-16T04:27:48;4.90;79.30
76893;DHT22;65854;51.466;7.260;2023-01-16T04:30:14;4.90;79.30
76893;DHT22;65854;51.466;7.260;2023-01-16T04:32:41;4.90;79.30
76893;DHT22;65854;51.466;7.260;2023-01-16T04:35:07;5.00;79.30
76893;DHT22;65854;51.466;7.260;2023-01-16T04:37:33;5.00;79.10
76893;DHT22;65854;51.466;7.260;2023-01-16T04:39:59;5.00;79.40
76893;DHT22;65854;51.466;7.260;2023-01-16T04:42:25;4.90;79.20
76893;DHT22;65854;51.466;7.260;2023-01-16T04:44:50;4.90;79.40
76893;DHT22;65854;51.466;7.260;2023-01-16T04:47:16;5.00;79.50
76893;DHT22;65854;51.466;7.260;2023-01-16T04:49:41;5.00;79.20
76893;DHT22;65854;51.466;7.260;2023-01-16T04:52:07;5.00;80.00
76893;DHT22;65854;51.466;7.260;2023-01-16T04:54:33;4.90;79.70
76893;DHT22;65854;51.466;7.260;2023-01-16T04:56:59;4.90;79.80
76893;DHT22;65854;51.466;7.260;2023-01-16T04:59:26;4.90;80.10
76893;DHT22;65854;51.466;7.260;2023-01-16T05:01:51;4.90;80.40
76893;DHT22;65854;51.466;7.260;2023-01-16T05:04:17;4.90;79.90
76893;DHT22;65854;51.466;7.260;2023-01-16T05:06:43;5.00;80.00
76893;DHT22;65854;51.466;7.260;2023-01-16T05:09:09;5.00;79.50
76893;DHT22;65854;51.466;7.260;2023-01-16T05:11:35;4.90;79.60
76893;DHT22;65854;51.466;7.260;2023-01-16T05:14:01;4.90;79.80
76893;DHT22;65854;51.466;7.260;2023-01-16T05:16:27;4.90;79.50
76893;DHT22;65854;51.466;7.260;2023-01-16T05:18:53;4.90;79.10
76893;DHT22;65854;51.466;7.260;2023-01-16T05:21:18;4.90;79.10
76893;DHT22;65854;51.466;7.260;2023-01-16T05:23:44;4.90;79.50
76893;DHT22;65854;51.466;7.260;2023-01-16T05:26:10;4.90;79.40
76893;DHT22;65854;51.466;7.260;2023-01-16T05:28:36;4.90;79.60
76893;DHT22;65854;51.466;7.260;2023-01-16T05:31:02;4.90;79.70
76893;DHT22;65854;51.466;7.260;2023-01-16T05:33:28;4.90;79.50
76893;DHT22;65854;51.466;7.260;2023-01-16T05:35:54;4.90;79.90
76893;DHT22;65854;51.466;7.260;2023-01-16T05:38:20;4.90;79.40
76893;DHT22;65854;51.466;7.260;2023-01-16T05:40:46;4.90;79.00
76893;DHT22;65854;51.466;7.260;2023-01-16T05:43:12;4.90;79.10
76893;DHT22;65854;51.466;7.260;2023-01-16T05:45:38;4.90;79.30
76893;DHT22;65854;51.466;7.260;2023-01-16T05:48:04;4.90;78.60
76893;DHT22;65854;51.466;7.260;2023-01-16T05:50:30;4.90;78.40
76893;DHT22;65854;51.466;7.260;2023-01-16T05:52:56;4.90;78.40
76893;DHT22;65854;51.466;7.260;2023-01-16T05:55:21;4.90;78.80
76893;DHT22;65854;51.466;7.260;2023-01-16T05:57:47;4.90;78.60
76893;DHT22;65854;51.466;7.260;2023-01-16T06:00:13;4.90;78.60
76893;DHT22;65854;51.466;7.260;2023-01-16T06:02:39;4.90;78.30
76893;DHT22;65854;51.466;7.260;2023-01-16T06:05:05;4.90;77.80
76893;DHT22;65854;51.466;7.260;2023-01-16T06:07:31;4.90;78.10
76893;DHT22;65854;51.466;7.260;2023-01-16T06:09:56;4.90;78.30
76893;DHT22;65854;51.466;7.260;2023-01-16T06:12:22;4.90;78.00
76893;DHT22;65854;51.466;7.260;2023-01-16T06:14:48;4.90;78.00
76893;DHT22;65854;51.466;7.260;2023-01-16T06:17:13;5.00;77.80
76893;DHT22;65854;51.466;7.260;2023-01-16T06:19:40;5.00;78.20
76893;DHT22;65854;51.466;7.260;2023-01-16T06:22:06;5.00;77.80
76893;DHT22;65854;51.466;7.260;2023-01-16T06:24:31;5.00;77.50
76893;DHT22;65854;51.466;7.260;2023-01-16T06:26:57;5.00;77.50
76893;DHT22;65854;51.466;7.260;2023-01-16T06:29:23;5.00;77.40
76893;DHT22;65854;51.466;7.260;2023-01-16T06:31:49;5.10;77.70
76893;DHT22;65854;51.466;7.260;2023-01-16T06:34:14;5.10;77.20
76893;DHT22;65854;51.466;7.260;2023-01-16T06:36:40;5.10;76.80
76893;DHT22;65854;51.466;7.260;2023-01-16T06:39:07;5.10;76.70
76893;DHT22;65854;51.466;7.260;2023-01-16T06:41:33;5.10;76.30
76893;DHT22;65854;51.466;7.260;2023-01-16T06:43:58;5.10;76.70
76893;DHT22;65854;51.466;7.260;2023-01-16T06:46:24;5.10;76.50
76893;DHT22;65854;51.466;7.260;2023-01-16T06:48:49;5.20;76.80
76893;DHT22;65854;51.466;7.260;2023-01-16T06:51:15;5.20;76.60
76893;DHT22;65854;51.466;7.260;2023-01-16T06:53:41;5.20;76.20
76893;DHT22;65854;51.466;7.260;2023-01-16T06:56:06;5.20;76.20
76893;DHT22;65854;51.466;7.260;2023-01-16T06:58:32;5.20;75.90
76893;DHT22;65854;51.466;7.260;2023-01-16T07:00:58;5.20;76.40
76893;DHT22;65854;51.466;7.260;2023-01-16T07:03:23;5.20;76.70
76893;DHT22;65854;51.466;7.260;2023-01-16T07:05:50;5.20;76.00
76893;DHT22;65854;51.466;7.260;2023-01-16T07:08:15;5.20;76.20
76893;DHT22;65854;51.466;7.260;2023-01-16T07:10:41;5.20;76.90
76893;DHT22;65854;51.466;7.260;2023-01-16T07:13:07;5.20;76.60
76893;DHT22;65854;51.466;7.260;2023-01-16T07:15:33;5.20;76.00
76893;DHT22;65854;51.466;7.260;2023-01-16T07:18:17;5.20;75.50
76893;DHT22;65854;51.466;7.260;2023-01-16T07:21:03;5.20;75.30
76893;DHT22;65854;51.466;7.260;2023-01-16T07:23:57;5.30;75.50
76893;DHT22;65854;51.466;7.260;2023-01-16T07:26:23;5.30;75.70
76893;DHT22;65854;51.466;7.260;2023-01-16T07:28:53;5.30;75.20
76893;DHT22;65854;51.466;7.260;2023-01-16T07:31:20;5.30;75.80
76893;DHT22;65854;51.466;7.260;2023-01-16T07:33:46;5.30;75.50
76893;DHT22;65854;51.466;7.260;2023-01-16T07:36:11;5.30;75.60
76893;DHT22;65854;51.466;7.260;2023-01-16T07:38:37;5.40;76.00
76893;DHT22;65854;51.466;7.260;2023-01-16T07:41:02;5.40;75.60
76893;DHT22;65854;51.466;7.260;2023-01-16T07:43:29;5.40;75.20
76893;DHT22;65854;51.466;7.260;2023-01-16T07:45:54;5.40;75.00
76893;DHT22;65854;51.466;7.260;2023-01-16T07:48:21;5.40;75.40
76893;DHT22;65854;51.466;7.260;2023-01-16T07:50:55;5.40;75.50
76893;DHT22;65854;51.466;7.260;2023-01-16T07:53:22;5.40;75.60
76893;DHT22;65854;51.466;7.260;2023-01-16T07:55:53;5.40;75.40
76893;DHT22;65854;51.466;7.260;2023-01-16T07:58:20;5.40;76.00
76893;DHT22;65854;51.466;7.260;2023-01-16T08:00:46;5.40;75.30
76893;DHT22;65854;51.466;7.260;2023-01-16T08:03:13;5.50;75.30
76893;DHT22;65854;51.466;7.260;2023-01-16T08:05:39;5.50;75.30
76893;DHT22;65854;51.466;7.260;2023-01-16T08:08:05;5.50;75.70
76893;DHT22;65854;51.466;7.260;2023-01-16T08:10:31;5.40;75.50
76893;DHT22;65854;51.466;7.260;2023-01-16T08:12:56;5.40;75.50
76893;DHT22;65854;51.466;7.260;2023-01-16T08:15:22;5.40;75.50
76893;DHT22;65854;51.466;7.260;2023-01-16T08:17:47;5.40;75.60
76893;DHT22;65854;51.466;7.260;2023-01-16T08:20:13;5.40;76.40
76893;DHT22;65854;51.466;7.260;2023-01-16T08:22:47;5.40;76.80
76893;DHT22;65854;51.466;7.260;2023-01-16T08:25:14;5.40;77.10
76893;DHT22;65854;51.466;7.260;2023-01-16T08:27:40;5.40;77.50
76893;DHT22;65854;51.466;7.260;2023-01-16T08:30:07;5.40;78.30
76893;DHT22;65854;51.466;7.260;2023-01-16T08:32:33;5.30;78.60
76893;DHT22;65854;51.466;7.260;2023-01-16T08:34:59;5.30;79.30
76893;DHT22;65854;51.466;7.260;2023-01-16T08:37:24;5.30;79.00
76893;DHT22;65854;51.466;7.260;2023-01-16T08:39:50;5.20;79.70
76893;DHT22;65854;51.466;7.260;2023-01-16T08:42:15;5.20;80.20
76893;DHT22;65854;51.466;7.260;2023-01-16T08:45:00;5.20;79.20
76893;DHT22;65854;51.466;7.260;2023-01-16T08:47:44;5.10;79.20
76893;DHT22;65854;51.466;7.260;2023-01-16T08:50:28;5.10;79.90
76893;DHT22;65854;51.466;7.260;2023-01-16T08:53:13;5.10;78.90
76893;DHT22;65854;51.466;7.260;2023-01-16T08:55:38;5.20;78.90
76893;DHT22;65854;51.466;7.260;2023-01-16T08:58:05;5.20;79.00
76893;DHT22;65854;51.466;7.260;2023-01-16T09:00:31;5.20;78.60
76893;DHT22;65854;51.466;7.260;2023-01-16T09:02:57;5.30;79.00
76893;DHT22;65854;51.466;7.260;2023-01-16T09:05:25;5.40;78.80
76893;DHT22;65854;51.466;7.260;2023-01-16T09:07:50;5.40;78.60
76893;DHT22;65854;51.466;7.260;2023-01-16T09:10:16;5.40;77.70
76893;DHT22;65854;51.466;7.260;2023-01-16T09:12:42;5.40;77.50
76893;DHT22;65854;51.466;7.260;2023-01-16T09:15:28;5.40;76.90
76893;DHT22;65854;51.466;7.260;2023-01-16T09:17:54;5.40;77.60
76893;DHT22;65854;51.466;7.260;2023-01-16T09:20:19;5.50;76.80
76893;DHT22;65854;51.466;7.260;2023-01-16T09:22:45;5.50;77.40
76893;DHT22;65854;51.466;7.260;2023-01-16T09:25:11;5.50;76.80
76893;DHT22;65854;51.466;7.260;2023-01-16T09:27:36;5.60;76.20
76893;DHT22;65854;51.466;7.260;2023-01-16T09:30:02;5.60;77.40
76893;DHT22;65854;51.466;7.260;2023-01-16T09:32:28;5.60;77.00
76893;DHT22;65854;51.466;7.260;2023-01-16T09:34:54;5.60;76.60
76893;DHT22;65854;51.466;7.260;2023-01-16T09:37:19;5.60;76.10
76893;DHT22;65854;51.466;7.260;2023-01-16T09:39:45;5.60;76.40
76893;DHT22;65854;51.466;7.260;2023-01-16T09:45:05;5.50;77.90
76893;DHT22;65854;51.466;7.260;2023-01-16T09:47:33;5.60;76.80
76893;DHT22;65854;51.466;7.260;2023-01-16T09:52:29;5.60;77.10
76893;DHT22;65854;51.466;7.260;2023-01-16T09:55:27;5.50;77.50
76893;DHT22;65854;51.466;7.260;2023-01-16T09:58:19;5.30;78.80
76893;DHT22;65854;51.466;7.260;2023-01-16T10:03:33;5.10;82.70
76893;DHT22;65854;51.466;7.260;2023-01-16T10:06:11;5.10;81.60
76893;DHT22;65854;51.466;7.260;2023-01-16T10:11:29;5.00;83.60
76893;DHT22;65854;51.466;7.260;2023-01-16T10:17:04;4.80;84.10
76893;DHT22;65854;51.466;7.260;2023-01-16T10:22:35;4.70;83.40
76893;DHT22;65854;51.466;7.260;2023-01-16T10:25:14;4.70;82.60
76893;DHT22;65854;51.466;7.260;2023-01-16T10:27:57;4.80;82.50
76893;DHT22;65854;51.466;7.260;2023-01-16T10:30:29;4.90;83.00
76893;DHT22;65854;51.466;7.260;2023-01-16T10:33:22;5.00;82.00
76893;DHT22;65854;51.466;7.260;2023-01-16T10:35:51;5.00;81.90
76893;DHT22;65854;51.466;7.260;2023-01-16T10:38:37;4.90;84.60
76893;DHT22;65854;51.466;7.260;2023-01-16T10:41:18;4.90;84.60
76893;DHT22;65854;51.466;7.260;2023-01-16T10:47:10;4.70;83.90
76893;DHT22;65854;51.466;7.260;2023-01-16T10:49:54;4.80;82.70
76893;DHT22;65854;51.466;7.260;2023-01-16T10:52:19;4.70;82.80
76893;DHT22;65854;51.466;7.260;2023-01-16T10:54:45;4.70;83.50
76893;DHT22;65854;51.466;7.260;2023-01-16T10:57:15;4.80;83.30
76893;DHT22;65854;51.466;7.260;2023-01-16T10:59:42;4.90;80.80
76893;DHT22;65854;51.466;7.260;2023-01-16T11:02:17;5.00;80.70
76893;DHT22;65854;51.466;7.260;2023-01-16T11:04:46;5.10;77.30
76893;DHT22;65854;51.466;7.260;2023-01-16T11:07:17;5.20;77.60
76893;DHT22;65854;51.466;7.260;2023-01-16T11:09:44;5.30;77.40
76893;DHT22;65854;51.466;7.260;2023-01-16T11:12:21;5.40;76.30
76893;DHT22;65854;51.466;7.260;2023-01-16T11:15:16;5.40;75.20
76893;DHT22;65854;51.466;7.260;2023-01-16T11:18:01;5.50;75.40
76893;DHT22;65854;51.466;7.260;2023-01-16T11:20:45;5.50;74.20
76893;DHT22;65854;51.466;7.260;2023-01-16T11:23:21;5.50;74.40
76893;DHT22;65854;51.466;7.260;2023-01-16T11:25:49;5.60;73.80
76893;DHT22;65854;51.466;7.260;2023-01-16T11:28:31;5.60;74.30
76893;DHT22;65854;51.466;7.260;2023-01-16T11:31:27;5.70;74.30
76893;DHT22;65854;51.466;7.260;2023-01-16T11:34:02;5.70;72.80
76893;DHT22;65854;51.466;7.260;2023-01-16T11:36:35;5.70;73.30
76893;DHT22;65854;51.466;7.260;2023-01-16T11:39:01;5.80;72.50
76893;DHT22;65854;51.466;7.260;2023-01-16T11:41:37;5.90;72.40
76893;DHT22;65854;51.466;7.260;2023-01-16T11:44:23;5.90;71.80
76893;DHT22;65854;51.466;7.260;2023-01-16T11:47:26;5.90;72.30
76893;DHT22;65854;51.466;7.260;2023-01-16T11:49:53;6.00;71.90
76893;DHT22;65854;51.466;7.260;2023-01-16T11:52:23;6.00;72.00
76893;DHT22;65854;51.466;7.260;2023-01-16T11:55:00;6.10;72.20
76893;DHT22;65854;51.466;7.260;2023-01-16T12:00:11;6.20;71.90
76893;DHT22;65854;51.466;7.260;2023-01-16T12:02:51;6.10;71.30
76893;DHT22;65854;51.466;7.260;2023-01-16T12:08:34;6.10;71.70
76893;DHT22;65854;51.466;7.260;2023-01-16T12:30:37;5.70;76.30
76893;DHT22;65854;51.466;7.260;2023-01-16T12:33:15;5.80;76.40
76893;DHT22;65854;51.466;7.260;2023-01-16T12:36:09;5.90;76.60
76893;DHT22;65854;51.466;7.260;2023-01-16T12:38:42;5.90;75.30
76893;DHT22;65854;51.466;7.260;2023-01-16T12:41:18;5.90;74.40
76893;DHT22;65854;51.466;7.260;2023-01-16T12:44:33;5.80;73.80
76893;DHT22;65854;51.466;7.260;2023-01-16T12:52:58;5.80;74.70
76893;DHT22;65854;51.466;7.260;2023-01-16T12:58:14;5.80;74.70
76893;DHT22;65854;51.466;7.260;2023-01-16T13:01:09;5.90;74.50
76893;DHT22;65854;51.466;7.260;2023-01-16T13:03:41;5.90;73.70
76893;DHT22;65854;51.466;7.260;2023-01-16T13:06:16;5.80;73.90
76893;DHT22;65854;51.466;7.260;2023-01-16T13:08:48;5.80;74.70
76893;DHT22;65854;51.466;7.260;2023-01-16T13:11:28;5.90;73.50
76893;DHT22;65854;51.466;7.260;2023-01-16T13:14:16;5.90;74.00
76893;DHT22;65854;51.466;7.260;2023-01-16T13:16:56;5.80;74.40
76893;DHT22;65854;51.466;7.260;2023-01-16T13:19:28;5.80;74.10
76893;DHT22;65854;51.466;7.260;2023-01-16T13:24:36;5.80;74.80
76893;DHT22;65854;51.466;7.260;2023-01-16T13:27:11;5.80;75.60
76893;DHT22;65854;51.466;7.260;2023-01-16T13:29:50;5.80;75.80
76893;DHT22;65854;51.466;7.260;2023-01-16T13:32:29;5.70;76.70
76893;DHT22;65854;51.466;7.260;2023-01-16T13:40:46;5.70;78.40
76893;DHT22;65854;51.466;7.260;2023-01-16T13:42:59;5.80;76.80
76893;DHT22;65854;51.466;7.260;2023-01-16T13:45:46;5.70;76.30
76893;DHT22;65854;51.466;7.260;2023-01-16T13:48:21;5.70;77.30
76893;DHT22;65854;51.466;7.260;2023-01-16T13:51:12;5.70;77.90
76893;DHT22;65854;51.466;7.260;2023-01-16T13:53:39;5.80;76.60
76893;DHT22;65854;51.466;7.260;2023-01-16T13:56:08;5.80;76.60
76893;DHT22;65854;51.466;7.260;2023-01-16T13:58:40;5.90;76.40
76893;DHT22;65854;51.466;7.260;2023-01-16T14:06:52;5.80;76.40
76893;DHT22;65854;51.466;7.260;2023-01-16T14:15:25;5.90;76.20
76893;DHT22;65854;51.466;7.260;2023-01-16T14:18:36;6.00;76.10
76893;DHT22;65854;51.466;7.260;2023-01-16T14:21:03;6.00;75.10
76893;DHT22;65854;51.466;7.260;2023-01-16T14:23:31;6.00;75.90
76893;DHT22;65854;51.466;7.260;2023-01-16T14:28:53;5.90;75.50
76893;DHT22;65854;51.466;7.260;2023-01-16T14:31:28;5.90;76.00
76893;DHT22;65854;51.466;7.260;2023-01-16T14:33:58;5.90;75.90
76893;DHT22;65854;51.466;7.260;2023-01-16T14:36:27;5.80;76.10
76893;DHT22;65854;51.466;7.260;2023-01-16T14:38:54;5.70;76.90
76893;DHT22;65854;51.466;7.260;2023-01-16T14:41:33;5.70;78.00
76893;DHT22;65854;51.466;7.260;2023-01-16T14:44:19;5.60;78.80
76893;DHT22;65854;51.466;7.260;2023-01-16T14:47:24;5.50;79.70
76893;DHT22;65854;51.466;7.260;2023-01-16T14:50:14;5.40;80.60
76893;DHT22;65854;51.466;7.260;2023-01-16T14:58:30;5.20;82.50
76893;DHT22;65854;51.466;7.260;2023-01-16T15:00:57;5.10;82.00
76893;DHT22;65854;51.466;7.260;2023-01-16T15:03:45;5.10;84.40
76893;DHT22;65854;51.466;7.260;2023-01-16T15:06:11;5.00;84.90
76893;DHT22;65854;51.466;7.260;2023-01-16T15:08:40;4.90;84.60
76893;DHT22;65854;51.466;7.260;2023-01-16T15:11:20;4.90;85.20
76893;DHT22;65854;51.466;7.260;2023-01-16T15:14:15;4.80;85.80
76893;DHT22;65854;51.466;7.260;2023-01-16T15:17:26;4.70;88.60
76893;DHT22;65854;51.466;7.260;2023-01-16T15:20:28;4.60;90.10
76893;DHT22;65854;51.466;7.260;2023-01-16T15:23:22;4.60;90.10
76893;DHT22;65854;51.466;7.260;2023-01-16T15:31:14;4.60;88.90
76893;DHT22;65854;51.466;7.260;2023-01-16T15:33:41;4.60;88.70
76893;DHT22;65854;51.466;7.260;2023-01-16T15:42:18;4.70;87.10
76893;DHT22;65854;51.466;7.260;2023-01-16T15:45:36;4.70;86.90
76893;DHT22;65854;51.466;7.260;2023-01-16T15:51:02;4.80;86.50
76893;DHT22;65854;51.466;7.260;2023-01-16T15:53:36;4.80;86.10
76893;DHT22;65854;51.466;7.260;2023-01-16T15:56:23;4.80;85.60
76893;DHT22;65854;51.466;7.260;2023-01-16T15:58:50;4.80;85.70
76893;DHT22;65854;51.466;7.260;2023-01-16T16:01:26;4.80;85.70
76893;DHT22;65854;51.466;7.260;2023-01-16T16:03:52;4.80;85.90
76893;DHT22;65854;51.466;7.260;2023-01-16T16:06:19;4.80;85.60
76893;DHT22;65854;51.466;7.260;2023-01-16T16:08:47;4.80;85.40
76893;DHT22;65854;51.466;7.260;2023-01-16T16:11:22;4.90;85.80
76893;DHT22;65854;51.466;7.260;2023-01-16T16:22:55;4.90;85.10
76893;DHT22;65854;51.466;7.260;2023-01-16T16:25:36;5.00;84.40
76893;DHT22;65854;51.466;7.260;2023-01-16T16:28:04;5.00;83.90
76893;DHT22;65854;51.466;7.260;2023-01-16T16:30:30;5.00;84.00
76893;DHT22;65854;51.466;7.260;2023-01-16T16:32:56;5.00;85.40
76893;DHT22;65854;51.466;7.260;2023-01-16T16:35:33;5.00;87.10
76893;DHT22;65854;51.466;7.260;2023-01-16T16:38:01;4.90;86.10
76893;DHT22;65854;51.466;7.260;2023-01-16T16:40:27;5.00;85.20
76893;DHT22;65854;51.466;7.260;2023-01-16T16:42:54;5.00;85.20
76893;DHT22;65854;51.466;7.260;2023-01-16T16:45:29;5.00;84.90
76893;DHT22;65854;51.466;7.260;2023-01-16T16:48:28;5.00;84.50
76893;DHT22;65854;51.466;7.260;2023-01-16T16:51:27;5.00;84.80
76893;DHT22;65854;51.466;7.260;2023-01-16T16:53:56;5.00;85.00
76893;DHT22;65854;51.466;7.260;2023-01-16T16:56:25;5.00;86.00
76893;DHT22;65854;51.466;7.260;2023-01-16T16:58:52;5.00;85.10
76893;DHT22;65854;51.466;7.260;2023-01-16T17:01:20;4.90;85.60
76893;DHT22;65854;51.466;7.260;2023-01-16T17:03:49;4.80;86.40
76893;DHT22;65854;51.466;7.260;2023-01-16T17:06:23;4.90;87.30
76893;DHT22;65854;51.466;7.260;2023-01-16T17:08:50;4.80;86.60
76893;DHT22;65854;51.466;7.260;2023-01-16T17:11:16;4.80;86.50
76893;DHT22;65854;51.466;7.260;2023-01-16T17:13:42;4.80;85.90
76893;DHT22;65854;51.466;7.260;2023-01-16T17:16:40;4.80;86.40
76893;DHT22;65854;51.466;7.260;2023-01-16T17:19:21;4.80;86.60
76893;DHT22;65854;51.466;7.260;2023-01-16T17:21:48;4.80;85.90
76893;DHT22;65854;51.466;7.260;2023-01-16T17:24:18;4.80;86.00
76893;DHT22;65854;51.466;7.260;2023-01-16T17:26:44;4.80;85.60
76893;DHT22;65854;51.466;7.260;2023-01-16T17:29:11;4.80;85.20
76893;DHT22;65854;51.466;7.260;2023-01-16T17:31:38;4.80;84.60
76893;DHT22;65854;51.466;7.260;2023-01-16T17:34:04;4.80;85.00
76893;DHT22;65854;51.466;7.260;2023-01-16T17:36:30;4.90;84.10
76893;DHT22;65854;51.466;7.260;2023-01-16T17:38:58;4.80;83.90
76893;DHT22;65854;51.466;7.260;2023-01-16T17:41:27;4.80;84.10
76893;DHT22;65854;51.466;7.260;2023-01-16T17:43:55;4.90;84.40
76893;DHT22;65854;51.466;7.260;2023-01-16T17:46:39;4.90;84.10
76893;DHT22;65854;51.466;7.260;2023-01-16T17:49:05;4.90;83.90
76893;DHT22;65854;51.466;7.260;2023-01-16T17:51:30;4.90;83.60
76893;DHT22;65854;51.466;7.260;2023-01-16T17:53:57;4.90;83.10
76893;DHT22;65854;51.466;7.260;2023-01-16T17:56:22;4.90;83.50
76893;DHT22;65854;51.466;7.260;2023-01-16T17:58:49;5.00;83.60
76893;DHT22;65854;51.466;7.260;2023-01-16T18:01:25;5.00;83.20
76893;DHT22;65854;51.466;7.260;2023-01-16T18:03:53;5.00;82.90
76893;DHT22;65854;51.466;7.260;2023-01-16T18:06:35;5.00;82.90
76893;DHT22;65854;51.466;7.260;2023-01-16T18:09:02;5.00;83.50
76893;DHT22;65854;51.466;7.260;2023-01-16T18:11:32;5.00;83.70
76893;DHT22;65854;51.466;7.260;2023-01-16T18:14:17;4.90;83.40
76893;DHT22;65854;51.466;7.260;2023-01-16T18:17:01;4.90;83.50
76893;DHT22;65854;51.466;7.260;2023-01-16T18:19:45;4.90;83.40
76893;DHT22;65854;51.466;7.260;2023-01-16T18:22:12;4.90;83.10
76893;DHT22;65854;51.466;7.260;2023-01-16T18:24:39;4.90;83.40
76893;DHT22;65854;51.466;7.260;2023-01-16T18:27:10;4.90;83.70
76893;DHT22;65854;51.466;7.260;2023-01-16T18:29:36;4.90;83.90
76893;DHT22;65854;51.466;7.260;2023-01-16T18:32:02;4.90;83.50
76893;DHT22;65854;51.466;7.260;2023-01-16T18:35:00;4.90;83.90
76893;DHT22;65854;51.466;7.260;2023-01-16T18:40:00;4.90;83.90
76893;DHT22;65854;51.466;7.260;2023-01-16T18:42:44;4.90;84.30
76893;DHT22;65854;51.466;7.260;2023-01-16T18:45:29;4.90;84.20
76893;DHT22;65854;51.466;7.260;2023-01-16T18:48:14;4.90;84.30
76893;DHT22;65854;51.466;7.260;2023-01-16T18:51:00;4.80;84.50
76893;DHT22;65854;51.466;7.260;2023-01-16T18:53:48;4.80;85.50